createdAt,value
2018-07-08T00:00:44.737Z,21.40
2018-07-08T00:03:14.874Z,21.40
2018-07-08T00:05:45.084Z,21.44
2018-07-08T00:08:15.236Z,21.53
2018-07-08T00:10:56.493Z,21.53
2018-07-08T00:13:26.484Z,21.62
2018-07-08T00:15:56.679Z,21.68
2018-07-08T00:18:27.001Z,21.72
2018-07-08T00:20:57.286Z,21.77
2018-07-08T00:23:27.546Z,21.79
2018-07-08T00:25:57.683Z,21.78
2018-07-08T00:28:27.871Z,21.79
2018-07-08T00:30:57.811Z,21.74
2018-07-08T00:33:28.035Z,21.69
2018-07-08T00:35:58.301Z,21.69
2018-07-08T00:38:28.276Z,21.68
2018-07-08T00:40:58.118Z,21.64
2018-07-08T00:43:31.053Z,21.53
2018-07-08T00:46:00.971Z,21.44
2018-07-08T00:48:31.005Z,21.46
2018-07-08T00:51:01.286Z,21.40
2018-07-08T00:53:31.306Z,21.38
2018-07-08T00:56:01.617Z,21.21
2018-07-08T00:58:31.861Z,21.15
2018-07-08T01:01:02.072Z,21.08
2018-07-08T01:03:32.231Z,21.01
2018-07-08T01:06:02.372Z,20.99
2018-07-08T01:08:32.285Z,20.99
2018-07-08T01:11:02.865Z,21.01
2018-07-08T01:13:32.918Z,20.99
2018-07-08T01:16:02.468Z,21.00
2018-07-08T01:18:32.884Z,21.05
2018-07-08T01:21:02.972Z,21.04
2018-07-08T01:23:32.806Z,21.06
2018-07-08T01:26:12.420Z,21.11
2018-07-08T01:28:43.376Z,21.09
2018-07-08T01:31:13.698Z,20.91
2018-07-08T01:33:44.240Z,20.97
2018-07-08T01:36:14.320Z,20.79
2018-07-08T01:38:44.690Z,20.81
2018-07-08T01:41:14.871Z,20.84
2018-07-08T01:43:45.066Z,20.85
2018-07-08T01:46:15.261Z,20.88
2018-07-08T01:48:45.417Z,20.90
2018-07-08T01:51:15.786Z,20.87
2018-07-08T01:53:45.891Z,20.83
2018-07-08T01:56:17.040Z,20.77
2018-07-08T01:58:47.621Z,20.72
2018-07-08T02:01:17.526Z,20.70
2018-07-08T02:03:47.876Z,20.71
2018-07-08T02:06:17.878Z,20.64
2018-07-08T02:08:48.121Z,20.56
2018-07-08T02:11:18.176Z,20.46
2018-07-08T02:13:48.488Z,20.37
2018-07-08T02:16:18.735Z,20.39
2018-07-08T02:18:48.732Z,20.38
2018-07-08T02:21:19.052Z,20.25
2018-07-08T02:23:49.027Z,20.15
2018-07-08T02:26:19.355Z,20.18
2018-07-08T02:28:49.526Z,20.17
2018-07-08T02:31:19.837Z,20.14
2018-07-08T02:33:50.076Z,20.06
2018-07-08T02:36:20.318Z,20.01
2018-07-08T02:38:50.374Z,19.92
2018-07-08T02:41:20.580Z,19.84
2018-07-08T02:43:50.808Z,19.87
2018-07-08T02:46:21.017Z,19.91
2018-07-08T02:48:51.357Z,19.86
2018-07-08T02:51:21.514Z,19.91
2018-07-08T02:53:51.703Z,19.85
2018-07-08T02:56:21.791Z,19.84
2018-07-08T02:58:51.951Z,19.86
2018-07-08T03:01:22.713Z,19.87
2018-07-08T03:03:53.272Z,19.86
2018-07-08T03:06:23.522Z,19.78
2018-07-08T03:08:53.816Z,19.71
2018-07-08T03:11:23.859Z,19.69
2018-07-08T03:13:54.173Z,19.66
2018-07-08T03:16:24.307Z,19.49
2018-07-08T03:18:54.334Z,19.26
2018-07-08T03:21:24.657Z,19.19
2018-07-08T03:23:55.866Z,19.20
2018-07-08T03:26:27.261Z,19.30
2018-07-08T03:28:58.183Z,19.50
2018-07-08T03:31:29.331Z,19.53
2018-07-08T03:34:00.504Z,19.60
2018-07-08T03:36:31.712Z,19.66
2018-07-08T03:39:02.762Z,19.71
2018-07-08T03:41:34.021Z,19.77
2018-07-08T03:50:39.181Z,19.76
2018-07-08T03:53:09.428Z,19.82
2018-07-08T03:55:40.472Z,19.78
2018-07-08T03:58:11.640Z,19.78
2018-07-08T04:00:42.530Z,19.77
2018-07-08T04:03:13.331Z,19.80
2018-07-08T04:05:44.109Z,19.71
2018-07-08T04:08:14.082Z,19.68
2018-07-08T04:10:43.854Z,19.66
2018-07-08T04:13:13.789Z,19.66
2018-07-08T04:15:44.127Z,19.65
2018-07-08T04:18:14.218Z,19.57
2018-07-08T04:20:44.308Z,19.57
2018-07-08T04:23:14.688Z,19.60
2018-07-08T04:25:44.757Z,19.64
2018-07-08T04:28:14.777Z,19.65
2018-07-08T04:30:44.586Z,19.66
2018-07-08T04:33:14.566Z,19.66
2018-07-08T04:35:44.728Z,19.69
2018-07-08T04:38:14.958Z,19.77
2018-07-08T04:40:45.125Z,19.75
2018-07-08T04:43:15.264Z,19.81
2018-07-08T04:45:46.116Z,19.88
2018-07-08T04:48:16.356Z,19.93
2018-07-08T04:50:46.291Z,19.95
2018-07-08T04:53:16.276Z,19.95
2018-07-08T04:55:46.308Z,19.91
2018-07-08T04:58:16.533Z,19.93
2018-07-08T05:00:46.595Z,19.88
2018-07-08T05:03:16.514Z,19.87
2018-07-08T05:05:46.071Z,19.95
2018-07-08T05:08:16.297Z,20.01
2018-07-08T05:10:46.506Z,19.99
2018-07-08T05:13:16.593Z,19.99
2018-07-08T05:15:46.518Z,19.90
2018-07-08T05:18:17.192Z,19.94
2018-07-08T05:20:47.327Z,19.95
2018-07-08T05:23:17.444Z,19.93
2018-07-08T05:25:47.487Z,19.87
2018-07-08T05:28:17.802Z,19.84
2018-07-08T05:30:47.916Z,19.76
2018-07-08T05:33:18.093Z,19.71
2018-07-08T05:35:48.494Z,19.80
2018-07-08T05:38:18.125Z,19.84
2018-07-08T05:40:48.385Z,19.87
2018-07-08T05:43:18.337Z,19.95
2018-07-08T05:45:48.357Z,19.91
2018-07-08T05:48:18.403Z,19.81
2018-07-08T05:50:48.579Z,19.80
2018-07-08T05:53:18.759Z,19.85
2018-07-08T05:55:49.033Z,19.91
2018-07-08T05:58:19.257Z,19.84
2018-07-08T06:00:49.347Z,19.84
2018-07-08T06:03:19.806Z,19.94
2018-07-08T06:05:49.863Z,19.93
2018-07-08T06:08:19.969Z,19.94
2018-07-08T06:10:50.231Z,20.04
2018-07-08T06:13:20.343Z,20.00
2018-07-08T06:15:50.603Z,20.07
2018-07-08T06:18:20.681Z,20.11
2018-07-08T06:20:50.718Z,20.10
2018-07-08T06:23:20.639Z,20.24
2018-07-08T06:25:50.923Z,20.37
2018-07-08T06:28:21.039Z,20.48
2018-07-08T06:30:51.307Z,20.34
2018-07-08T06:33:21.278Z,20.65
2018-07-08T06:35:51.212Z,21.35
2018-07-08T06:38:21.342Z,22.02
2018-07-08T06:40:51.653Z,22.52
2018-07-08T06:43:21.746Z,22.76
2018-07-08T06:45:51.907Z,22.70
2018-07-08T06:48:22.135Z,22.51
2018-07-08T06:50:52.578Z,22.36
2018-07-08T06:53:22.905Z,22.11
2018-07-08T06:55:52.907Z,21.94
2018-07-08T06:58:23.138Z,22.03
2018-07-08T07:00:53.308Z,22.20
2018-07-08T07:03:23.339Z,22.11
2018-07-08T07:05:53.544Z,22.28
2018-07-08T07:08:23.827Z,22.25
2018-07-08T07:10:53.962Z,22.74
2018-07-08T07:13:24.181Z,22.77
2018-07-08T07:15:54.434Z,23.11
2018-07-08T07:18:24.383Z,23.60
2018-07-08T07:20:54.727Z,23.48
2018-07-08T07:23:24.897Z,23.43
2018-07-08T07:25:54.998Z,23.91
2018-07-08T07:28:25.203Z,24.03
2018-07-08T07:30:55.596Z,24.16
2018-07-08T07:33:25.810Z,24.07
2018-07-08T07:35:55.898Z,23.80
2018-07-08T07:38:26.107Z,23.86
2018-07-08T07:40:56.287Z,23.80
2018-07-08T07:43:26.378Z,23.93
2018-07-08T07:45:56.313Z,24.24
2018-07-08T07:48:26.463Z,24.06
2018-07-08T07:50:57.069Z,23.76
2018-07-08T07:53:27.089Z,23.68
2018-07-08T07:55:57.419Z,23.50
2018-07-08T07:58:27.569Z,23.66
2018-07-08T08:00:57.821Z,23.33
2018-07-08T08:03:28.033Z,23.29
2018-07-08T08:05:58.300Z,23.17
2018-07-08T08:08:28.440Z,23.06
2018-07-08T08:10:58.722Z,22.84
2018-07-08T08:13:28.853Z,22.70
2018-07-08T08:15:58.894Z,22.67
2018-07-08T08:18:29.115Z,22.90
2018-07-08T08:20:59.597Z,23.11
2018-07-08T08:23:29.743Z,23.27
2018-07-08T08:25:59.928Z,23.21
2018-07-08T08:28:30.466Z,22.86
2018-07-08T08:31:00.558Z,22.69
2018-07-08T08:33:30.985Z,23.08
2018-07-08T08:36:01.545Z,23.54
2018-07-08T08:38:31.998Z,23.64
2018-07-08T08:41:02.080Z,23.54
2018-07-08T08:43:32.245Z,23.43
2018-07-08T08:46:02.591Z,23.44
2018-07-08T08:48:32.606Z,23.44
2018-07-08T08:51:02.740Z,23.54
2018-07-08T08:53:32.853Z,23.76
2018-07-08T08:56:11.518Z,23.87
2018-07-08T08:58:42.240Z,23.78
2018-07-08T09:01:12.410Z,23.83
2018-07-08T09:03:42.573Z,23.82
2018-07-08T09:06:12.701Z,24.02
2018-07-08T09:08:42.886Z,23.65
2018-07-08T09:11:13.105Z,23.41
2018-07-08T09:13:45.284Z,23.42
2018-07-08T09:16:15.434Z,23.41
2018-07-08T09:18:45.505Z,23.29
2018-07-08T09:21:15.696Z,23.20
2018-07-08T09:23:45.576Z,23.17
2018-07-08T09:26:15.386Z,23.16
2018-07-08T09:28:45.459Z,23.21
2018-07-08T09:31:15.677Z,23.28
2018-07-08T09:33:45.912Z,23.26
2018-07-08T09:36:16.044Z,23.18
2018-07-08T09:38:46.436Z,23.20
2018-07-08T09:41:17.645Z,23.23
2018-07-08T09:43:47.981Z,23.42
2018-07-08T09:46:20.004Z,23.53
2018-07-08T09:48:50.605Z,23.40
2018-07-08T09:51:21.240Z,23.38
2018-07-08T09:53:52.330Z,23.26
2018-07-08T09:56:23.508Z,23.17
2018-07-08T09:58:54.476Z,23.01
2018-07-08T10:01:25.754Z,23.03
2018-07-08T10:03:56.529Z,23.06
2018-07-08T10:06:28.015Z,23.19
2018-07-08T10:08:58.755Z,23.41
2018-07-08T10:20:39.098Z,23.57
2018-07-08T10:23:09.389Z,23.65
2018-07-08T10:25:39.601Z,23.63
2018-07-08T10:28:16.146Z,23.37
2018-07-08T10:30:46.385Z,23.49
2018-07-08T10:33:16.493Z,23.65
2018-07-08T10:35:59.002Z,23.69
2018-07-08T10:38:29.507Z,23.72
2018-07-08T10:40:59.882Z,23.74
2018-07-08T10:43:29.940Z,23.84
2018-07-08T10:45:59.962Z,23.96
2018-07-08T10:48:30.220Z,24.03
2018-07-08T10:51:00.604Z,24.03
2018-07-08T10:53:30.734Z,24.01
2018-07-08T10:56:00.875Z,23.78
2018-07-08T10:58:31.069Z,23.89
2018-07-08T11:01:02.815Z,24.03
2018-07-08T11:03:33.229Z,24.19
2018-07-08T11:06:03.330Z,24.36
2018-07-08T11:08:33.681Z,24.47
2018-07-08T11:11:04.018Z,24.67
2018-07-08T11:13:34.139Z,24.87
2018-07-08T11:16:04.344Z,25.02
2018-07-08T11:18:34.422Z,25.11
2018-07-08T11:21:04.671Z,25.23
2018-07-08T11:23:34.653Z,25.18
2018-07-08T11:28:08.008Z,25.09
2018-07-08T11:30:38.080Z,25.19
2018-07-08T11:33:09.313Z,25.01
2018-07-08T11:35:39.498Z,25.09
2018-07-08T11:38:09.846Z,25.16
2018-07-08T11:40:40.058Z,25.28
2018-07-08T11:43:10.389Z,25.35
2018-07-08T11:45:40.474Z,25.44
2018-07-08T11:48:10.912Z,25.59
2018-07-08T11:50:42.278Z,25.69
2018-07-08T11:53:13.427Z,25.89
2018-07-08T11:55:44.231Z,26.00
2018-07-08T12:00:38.577Z,26.01
2018-07-08T12:03:08.817Z,26.13
2018-07-08T12:05:39.903Z,26.29
2018-07-08T12:08:10.033Z,26.38
2018-07-08T12:10:40.283Z,26.47
2018-07-08T12:13:10.221Z,26.55
2018-07-08T12:15:40.776Z,26.73
2018-07-08T12:18:10.950Z,26.78
2018-07-08T12:20:41.144Z,26.90
2018-07-08T12:23:11.305Z,26.96
2018-07-08T12:25:41.406Z,26.99
2018-07-08T12:28:11.638Z,26.97
2018-07-08T12:30:42.050Z,27.13
2018-07-08T12:33:12.249Z,27.07
2018-07-08T12:35:42.425Z,27.10
2018-07-08T12:38:12.457Z,27.31
2018-07-08T12:40:42.749Z,27.46
2018-07-08T12:43:13.034Z,27.37
2018-07-08T12:45:43.209Z,27.56
2018-07-08T12:48:13.233Z,27.67
2018-07-08T12:50:43.586Z,27.72
2018-07-08T12:53:13.601Z,27.86
2018-07-08T12:55:43.923Z,27.93
2018-07-08T12:58:14.235Z,27.95
2018-07-08T13:00:44.146Z,28.01
2018-07-08T13:03:15.439Z,28.10
2018-07-08T13:05:45.680Z,28.15
2018-07-08T13:08:16.859Z,28.14
2018-07-08T13:10:47.814Z,28.08
2018-07-08T13:13:18.911Z,27.25
2018-07-08T13:15:49.284Z,27.52
2018-07-08T13:18:19.455Z,27.61
2018-07-08T13:20:49.709Z,27.75
2018-07-08T13:23:19.939Z,27.81
2018-07-08T13:25:50.159Z,27.86
2018-07-08T13:28:20.162Z,27.95
2018-07-08T13:30:50.538Z,27.96
2018-07-08T13:33:20.585Z,28.08
2018-07-08T13:35:51.042Z,28.38
2018-07-08T13:38:21.115Z,28.65
2018-07-08T13:40:51.106Z,28.74
2018-07-08T13:43:21.128Z,28.89
2018-07-08T13:45:51.496Z,28.78
2018-07-08T13:48:21.826Z,28.65
2018-07-08T13:50:52.031Z,28.76
2018-07-08T13:53:22.180Z,28.65
2018-07-08T13:55:52.445Z,28.72
2018-07-08T13:58:22.624Z,28.77
2018-07-08T14:00:52.850Z,28.92
2018-07-08T14:03:23.161Z,28.93
2018-07-08T14:05:53.270Z,28.98
2018-07-08T14:08:23.385Z,28.83
2018-07-08T14:10:53.605Z,28.98
2018-07-08T14:13:23.727Z,29.34
2018-07-08T14:15:54.086Z,29.63
2018-07-08T14:18:24.284Z,29.58
2018-07-08T14:20:54.440Z,29.57
2018-07-08T14:23:24.549Z,29.66
2018-07-08T14:25:54.820Z,29.78
2018-07-08T14:28:25.089Z,30.04
2018-07-08T14:30:55.070Z,30.13
2018-07-08T14:33:25.777Z,30.30
2018-07-08T14:35:56.847Z,30.42
2018-07-08T14:38:26.866Z,30.50
2018-07-08T14:40:56.961Z,30.73
2018-07-08T14:43:27.051Z,30.84
2018-07-08T14:45:57.394Z,30.89
2018-07-08T14:48:27.387Z,31.05
2018-07-08T14:50:57.636Z,31.13
2018-07-08T14:53:27.989Z,31.14
2018-07-08T14:55:58.195Z,31.17
2018-07-08T14:58:28.400Z,31.20
2018-07-08T15:00:58.991Z,31.03
2018-07-08T15:03:29.224Z,30.84
2018-07-08T15:05:59.655Z,30.93
2018-07-08T15:08:30.026Z,31.24
2018-07-08T15:11:00.215Z,31.59
2018-07-08T15:13:30.670Z,31.58
2018-07-08T15:16:01.024Z,31.31
2018-07-08T15:18:31.291Z,31.28
2018-07-08T15:21:01.950Z,31.55
2018-07-08T15:23:32.316Z,31.87
2018-07-08T15:26:02.401Z,32.10
2018-07-08T15:28:32.716Z,31.88
2018-07-08T15:31:02.437Z,31.93
2018-07-08T15:33:32.945Z,31.69
2018-07-08T15:36:03.260Z,31.33
2018-07-08T15:38:33.291Z,31.38
2018-07-08T15:41:03.445Z,31.70
2018-07-08T15:43:34.535Z,31.96
2018-07-08T15:46:05.040Z,32.05
2018-07-08T15:48:35.216Z,32.24
2018-07-08T15:51:05.390Z,32.44
2018-07-08T15:53:35.450Z,32.60
2018-07-08T15:56:05.892Z,32.59
2018-07-08T15:58:36.068Z,32.43
2018-07-08T16:01:06.585Z,31.91
2018-07-08T16:03:38.797Z,31.82
2018-07-08T16:06:08.840Z,31.72
2018-07-08T16:08:39.176Z,31.88
2018-07-08T16:11:09.741Z,32.43
2018-07-08T16:13:40.009Z,33.19
2018-07-08T16:16:10.122Z,34.26
2018-07-08T16:18:40.508Z,34.74
2018-07-08T16:21:11.670Z,35.37
2018-07-08T16:23:42.591Z,35.36
2018-07-08T16:26:13.665Z,35.87
2018-07-08T16:28:44.506Z,35.68
2018-07-08T16:31:14.811Z,36.72
2018-07-08T16:33:45.036Z,37.70
2018-07-08T16:36:15.045Z,38.43
2018-07-08T16:38:45.247Z,38.45
2018-07-08T16:41:15.276Z,38.69
2018-07-08T16:43:45.336Z,39.42
2018-07-08T16:46:20.120Z,39.20
2018-07-08T16:48:50.372Z,39.59
2018-07-08T16:51:20.605Z,40.14
2018-07-08T16:53:50.112Z,40.23
2018-07-08T16:56:20.269Z,40.66
2018-07-08T16:58:50.531Z,41.27
2018-07-08T17:03:45.412Z,41.57
2018-07-08T17:06:15.415Z,41.90
2018-07-08T17:08:45.677Z,41.25
2018-07-08T17:11:15.816Z,40.88
2018-07-08T17:13:45.961Z,40.37
2018-07-08T17:16:16.202Z,39.92
2018-07-08T17:18:46.339Z,39.67
2018-07-08T17:21:16.409Z,39.99
2018-07-08T17:23:46.526Z,40.03
2018-07-08T17:26:17.921Z,40.50
2018-07-08T17:28:48.728Z,40.62
2018-07-08T17:31:18.977Z,40.35
2018-07-08T17:33:49.316Z,40.18
2018-07-08T17:36:19.452Z,40.25
2018-07-08T17:38:50.480Z,39.76
2018-07-08T17:41:21.217Z,39.40
2018-07-08T17:43:52.335Z,39.09
2018-07-08T17:46:22.966Z,39.40
2018-07-08T17:48:53.807Z,38.99
2018-07-08T17:51:23.486Z,38.48
2018-07-08T17:53:53.683Z,38.42
2018-07-08T17:56:23.895Z,38.12
2018-07-08T17:58:54.007Z,38.02
2018-07-08T18:01:24.507Z,37.28
2018-07-08T18:03:54.742Z,37.07
2018-07-08T18:06:24.819Z,37.08
2018-07-08T18:08:55.166Z,37.25
2018-07-08T18:11:25.571Z,37.57
2018-07-08T18:13:55.858Z,37.40
2018-07-08T18:16:26.315Z,37.13
2018-07-08T18:18:56.793Z,36.92
2018-07-08T18:21:27.016Z,36.56
2018-07-08T18:23:57.605Z,35.65
2018-07-08T18:26:27.796Z,34.82
2018-07-08T18:28:58.366Z,34.83
2018-07-08T18:31:28.565Z,34.83
2018-07-08T18:33:58.899Z,34.32
2018-07-08T18:36:29.313Z,33.38
2018-07-08T18:38:59.661Z,33.24
2018-07-08T18:41:29.959Z,33.10
2018-07-08T18:44:00.136Z,32.44
2018-07-08T18:46:30.122Z,31.59
2018-07-08T18:49:00.415Z,30.76
2018-07-08T18:51:30.662Z,30.07
2018-07-08T18:54:00.917Z,29.55
2018-07-08T18:56:31.206Z,29.21
2018-07-08T18:59:01.748Z,28.99
2018-07-08T19:01:32.038Z,28.66
2018-07-08T19:04:02.027Z,28.53
2018-07-08T19:06:32.212Z,28.44
2018-07-08T19:09:02.353Z,28.17
2018-07-08T19:11:32.810Z,27.99
2018-07-08T19:14:03.105Z,27.94
2018-07-08T19:16:33.386Z,27.92
2018-07-08T19:24:58.590Z,28.01
2018-07-08T19:27:28.278Z,28.03
2018-07-08T19:29:58.725Z,28.05
2018-07-08T19:32:29.088Z,28.04
2018-07-08T19:35:00.486Z,27.99
2018-07-08T19:37:30.707Z,27.95
2018-07-08T19:40:00.651Z,27.85
2018-07-08T19:42:31.469Z,27.86
2018-07-08T19:45:01.883Z,27.84
2018-07-08T19:47:32.037Z,27.81
2018-07-08T19:50:02.163Z,27.77
2018-07-08T19:52:32.418Z,27.70
2018-07-08T19:55:02.679Z,27.70
2018-07-08T19:57:33.777Z,27.62
2018-07-08T20:00:03.790Z,27.60
2018-07-08T20:02:33.898Z,27.54
2018-07-08T20:05:04.370Z,27.50
2018-07-08T20:07:34.568Z,27.47
2018-07-08T20:10:04.844Z,27.41
2018-07-08T20:12:35.336Z,27.35
2018-07-08T20:15:05.346Z,27.32
2018-07-08T20:17:35.628Z,27.10
2018-07-08T20:20:05.660Z,27.09
2018-07-08T20:22:35.842Z,27.04
2018-07-08T20:25:05.968Z,27.08
2018-07-08T20:27:36.242Z,26.98
2018-07-08T20:30:06.551Z,26.81
2018-07-08T20:32:36.938Z,26.70
2018-07-08T20:35:07.750Z,26.65
2018-07-08T20:37:37.311Z,26.63
2018-07-08T20:40:07.478Z,26.54
2018-07-08T20:42:38.156Z,26.47
2018-07-08T20:45:08.665Z,26.33
2018-07-08T20:47:38.714Z,26.26
2018-07-08T20:50:08.812Z,26.22
2018-07-08T20:52:39.156Z,26.21
2018-07-08T20:55:09.214Z,26.23
2018-07-08T20:57:39.465Z,26.13
2018-07-08T21:00:09.537Z,26.01
2018-07-08T21:02:39.672Z,25.86
2018-07-08T21:05:09.875Z,25.79
2018-07-08T21:07:40.271Z,25.77
2018-07-08T21:10:10.371Z,25.74
2018-07-08T21:12:40.670Z,25.76
2018-07-08T21:15:10.877Z,25.81
2018-07-08T21:17:41.007Z,25.81
2018-07-08T21:20:11.072Z,25.65
2018-07-08T21:22:40.667Z,25.53
2018-07-08T21:25:10.554Z,25.41
2018-07-08T21:27:40.385Z,25.24
2018-07-08T21:30:10.830Z,25.02
2018-07-08T21:32:41.739Z,25.06
2018-07-08T21:40:38.660Z,25.00
2018-07-08T21:43:08.657Z,25.11
2018-07-08T21:45:39.457Z,25.12
2018-07-08T21:48:09.657Z,25.05
2018-07-08T21:50:39.793Z,24.86
2018-07-08T21:53:10.000Z,24.74
2018-07-08T21:55:40.143Z,24.69
2018-07-08T21:58:10.358Z,24.60
2018-07-08T22:00:55.191Z,24.60
2018-07-08T22:03:26.631Z,24.70
2018-07-08T22:05:57.163Z,24.76
2018-07-08T22:10:38.577Z,24.73
2018-07-08T22:13:08.652Z,24.60
2018-07-08T22:15:38.294Z,24.64
2018-07-08T22:18:08.223Z,24.58
2018-07-08T22:20:38.291Z,24.58
2018-07-08T22:23:08.481Z,24.21
2018-07-08T22:25:38.280Z,24.46
2018-07-08T22:28:08.170Z,24.47
2018-07-08T22:30:38.272Z,24.54
2018-07-08T22:33:09.289Z,24.52
2018-07-08T22:35:39.484Z,24.48
2018-07-08T22:38:09.677Z,24.39
2018-07-08T22:40:40.103Z,24.42
2018-07-08T22:43:10.321Z,24.42
2018-07-08T22:45:40.437Z,24.38
2018-07-08T22:48:10.554Z,24.43
2018-07-08T22:50:40.517Z,24.47
2018-07-08T22:53:10.738Z,24.43
2018-07-08T22:55:41.011Z,24.45
2018-07-08T22:58:11.225Z,24.45
2018-07-08T23:00:57.936Z,24.48
2018-07-08T23:03:48.689Z,24.47
2018-07-08T23:06:19.757Z,24.46
2018-07-08T23:08:50.568Z,24.36
2018-07-08T23:11:21.385Z,24.36
2018-07-08T23:13:52.297Z,24.37
2018-07-08T23:16:23.102Z,24.39
2018-07-08T23:18:53.337Z,24.34
2018-07-08T23:21:23.925Z,24.35
2018-07-08T23:23:54.144Z,24.38
2018-07-08T23:26:24.327Z,24.36
2018-07-08T23:28:54.606Z,24.28
2018-07-08T23:31:24.801Z,24.30
2018-07-08T23:33:54.773Z,24.35
2018-07-08T23:36:25.177Z,24.38
2018-07-08T23:38:55.326Z,24.34
2018-07-08T23:41:25.480Z,24.23
2018-07-08T23:43:55.764Z,24.14
2018-07-08T23:46:25.848Z,24.15
2018-07-08T23:48:55.868Z,24.02
2018-07-08T23:51:26.245Z,23.92
2018-07-08T23:53:56.535Z,23.91
2018-07-08T23:56:26.476Z,23.90
2018-07-08T23:58:56.812Z,23.91
